createdAt,value
2023-05-16T00:00:22.026Z,945.86
2023-05-16T00:01:22.041Z,945.81
2023-05-16T00:02:22.045Z,945.87
2023-05-16T00:03:22.064Z,945.87
2023-05-16T00:04:21.982Z,945.82
2023-05-16T00:05:21.942Z,945.80
2023-05-16T00:06:21.948Z,945.83
2023-05-16T00:07:21.925Z,945.81
2023-05-16T00:08:21.915Z,945.84
2023-05-16T00:09:21.926Z,945.83
2023-05-16T00:10:21.915Z,945.77
2023-05-16T00:11:21.887Z,945.78
2023-05-16T00:12:21.873Z,945.81
2023-05-16T00:13:21.844Z,945.82
2023-05-16T00:14:21.866Z,945.82
2023-05-16T00:15:21.823Z,945.80
2023-05-16T00:16:22.090Z,945.85
2023-05-16T00:17:21.852Z,945.87
2023-05-16T00:18:21.819Z,945.84
2023-05-16T00:19:21.807Z,945.88
2023-05-16T00:20:21.770Z,945.85
2023-05-16T00:21:23.626Z,945.83
2023-05-16T00:22:21.747Z,945.88
2023-05-16T00:23:21.740Z,945.84
2023-05-16T00:24:21.743Z,945.81
2023-05-16T00:25:21.756Z,945.79
2023-05-16T00:26:21.821Z,945.78
2023-05-16T00:27:21.726Z,945.76
2023-05-16T00:28:21.679Z,945.79
2023-05-16T00:29:21.678Z,945.76
2023-05-16T00:30:21.660Z,945.77
2023-05-16T00:31:21.697Z,945.79
2023-05-16T00:32:21.862Z,945.75
2023-05-16T00:33:21.670Z,945.77
2023-05-16T00:34:21.696Z,945.83
2023-05-16T00:35:21.616Z,945.83
2023-05-16T00:36:23.811Z,945.89
2023-05-16T00:37:21.581Z,945.91
2023-05-16T00:38:21.570Z,945.91
2023-05-16T00:39:21.566Z,945.89
2023-05-16T00:40:21.557Z,945.89
2023-05-16T00:41:21.570Z,945.86
2023-05-16T00:42:21.534Z,945.88
2023-05-16T00:43:21.504Z,945.91
2023-05-16T00:44:21.520Z,945.91
2023-05-16T00:45:21.494Z,945.91
2023-05-16T00:46:21.529Z,945.95
2023-05-16T00:47:21.474Z,945.94
2023-05-16T00:48:21.561Z,945.97
2023-05-16T00:49:21.437Z,945.98
2023-05-16T00:50:21.463Z,945.94
2023-05-16T00:51:21.419Z,945.95
2023-05-16T00:52:21.425Z,945.94
2023-05-16T00:53:21.409Z,945.93
2023-05-16T00:54:21.384Z,945.94
2023-05-16T00:55:21.379Z,945.92
2023-05-16T00:56:21.381Z,945.90
2023-05-16T00:57:21.365Z,945.91
2023-05-16T00:58:21.335Z,945.90
2023-05-16T00:59:21.338Z,945.95
2023-05-16T01:00:21.333Z,945.90
2023-05-16T01:01:21.360Z,945.94
2023-05-16T01:02:21.342Z,945.98
2023-05-16T01:03:21.478Z,945.98
2023-05-16T01:04:21.295Z,946.00
2023-05-16T01:05:21.269Z,945.99
2023-05-16T01:06:21.276Z,945.98
2023-05-16T01:07:21.229Z,946.01
2023-05-16T01:08:21.217Z,946.06
2023-05-16T01:09:21.218Z,946.05
2023-05-16T01:10:21.199Z,946.03
2023-05-16T01:11:21.209Z,946.01
2023-05-16T01:12:21.196Z,946.02
2023-05-16T01:13:21.282Z,946.03
2023-05-16T01:14:21.150Z,946.02
2023-05-16T01:15:21.135Z,946.06
2023-05-16T01:16:21.167Z,946.04
2023-05-16T01:17:21.205Z,946.06
2023-05-16T01:18:21.102Z,946.06
2023-05-16T01:19:22.114Z,946.09
2023-05-16T01:20:21.102Z,946.06
2023-05-16T01:21:21.068Z,946.04
2023-05-16T01:22:21.092Z,946.07
2023-05-16T01:23:21.077Z,946.07
2023-05-16T01:24:21.031Z,946.08
2023-05-16T01:25:21.031Z,946.06
2023-05-16T01:26:21.006Z,946.09
2023-05-16T01:27:21.003Z,946.05
2023-05-16T01:28:20.997Z,946.09
2023-05-16T01:29:21.100Z,946.08
2023-05-16T01:30:20.960Z,946.07
2023-05-16T01:31:21.007Z,946.05
2023-05-16T01:32:20.978Z,946.05
2023-05-16T01:33:20.951Z,946.08
2023-05-16T01:34:20.920Z,946.08
2023-05-16T01:35:20.908Z,946.17
2023-05-16T01:36:20.891Z,946.12
2023-05-16T01:37:20.884Z,946.09
2023-05-16T01:38:20.895Z,946.12
2023-05-16T01:39:20.865Z,946.17
2023-05-16T01:40:20.860Z,946.17
2023-05-16T01:41:20.860Z,946.17
2023-05-16T01:42:20.822Z,946.14
2023-05-16T01:43:20.839Z,946.15
2023-05-16T01:44:20.801Z,946.19
2023-05-16T01:45:20.836Z,946.22
2023-05-16T01:46:20.876Z,946.21
2023-05-16T01:47:20.771Z,946.19
2023-05-16T01:48:20.753Z,946.21
2023-05-16T01:49:20.767Z,946.26
2023-05-16T01:50:20.788Z,946.24
2023-05-16T01:51:20.728Z,946.26
2023-05-16T01:52:20.749Z,946.29
2023-05-16T01:53:20.705Z,946.24
2023-05-16T01:54:20.704Z,946.25
2023-05-16T01:55:20.690Z,946.28
2023-05-16T01:56:20.683Z,946.27
2023-05-16T01:57:20.664Z,946.30
2023-05-16T01:58:24.525Z,946.27
2023-05-16T01:59:20.675Z,946.28
2023-05-16T02:00:20.708Z,946.25
2023-05-16T02:01:20.725Z,946.27
2023-05-16T02:02:20.733Z,946.29
2023-05-16T02:03:20.767Z,946.28
2023-05-16T02:04:20.703Z,946.29
2023-05-16T02:05:20.730Z,946.27
2023-05-16T02:06:20.548Z,946.29
2023-05-16T02:07:20.546Z,946.27
2023-05-16T02:08:20.552Z,946.25
2023-05-16T02:09:20.540Z,946.26
2023-05-16T02:10:20.509Z,946.22
2023-05-16T02:11:20.497Z,946.25
2023-05-16T02:12:20.480Z,946.23
2023-05-16T02:13:20.493Z,946.24
2023-05-16T02:14:20.464Z,946.26
2023-05-16T02:15:20.471Z,946.24
2023-05-16T02:16:20.497Z,946.27
2023-05-16T02:17:20.476Z,946.27
2023-05-16T02:18:20.431Z,946.27
2023-05-16T02:19:20.562Z,946.27
2023-05-16T02:20:20.387Z,946.31
2023-05-16T02:21:20.395Z,946.29
2023-05-16T02:22:20.426Z,946.34
2023-05-16T02:23:20.386Z,946.30
2023-05-16T02:24:20.345Z,946.39
2023-05-16T02:25:20.340Z,946.39
2023-05-16T02:26:20.320Z,946.36
2023-05-16T02:27:20.359Z,946.37
2023-05-16T02:28:20.301Z,946.39
2023-05-16T02:29:20.320Z,946.40
2023-05-16T02:30:20.283Z,946.44
2023-05-16T02:31:20.328Z,946.39
2023-05-16T02:32:20.258Z,946.41
2023-05-16T02:33:20.266Z,946.39
2023-05-16T02:34:20.250Z,946.40
2023-05-16T02:35:20.226Z,946.38
2023-05-16T02:36:20.229Z,946.39
2023-05-16T02:37:20.201Z,946.39
2023-05-16T02:38:20.192Z,946.40
2023-05-16T02:39:20.209Z,946.41
2023-05-16T02:40:20.166Z,946.38
2023-05-16T02:41:20.157Z,946.39
2023-05-16T02:42:20.140Z,946.37
2023-05-16T02:43:20.136Z,946.39
2023-05-16T02:44:27.823Z,946.38
2023-05-16T02:45:20.237Z,946.42
2023-05-16T02:46:20.193Z,946.40
2023-05-16T02:47:20.167Z,946.43
2023-05-16T02:48:20.092Z,946.39
2023-05-16T02:49:20.088Z,946.44
2023-05-16T02:50:20.075Z,946.40
2023-05-16T02:51:20.065Z,946.44
2023-05-16T02:52:20.024Z,946.46
2023-05-16T02:53:20.027Z,946.47
2023-05-16T02:54:20.002Z,946.50
2023-05-16T02:55:22.289Z,946.51
2023-05-16T02:56:19.985Z,946.53
2023-05-16T02:57:19.983Z,946.53
2023-05-16T02:58:19.990Z,946.56
2023-05-16T02:59:19.966Z,946.58
2023-05-16T03:00:19.994Z,946.58
2023-05-16T03:01:19.970Z,946.58
2023-05-16T03:02:19.979Z,946.64
2023-05-16T03:03:20.026Z,946.62
2023-05-16T03:04:19.893Z,946.59
2023-05-16T03:05:19.912Z,946.57
2023-05-16T03:06:19.867Z,946.59
2023-05-16T03:07:19.860Z,946.60
2023-05-16T03:08:20.233Z,946.59
2023-05-16T03:09:19.848Z,946.61
2023-05-16T03:10:19.826Z,946.67
2023-05-16T03:11:19.843Z,946.67
2023-05-16T03:12:19.810Z,946.67
2023-05-16T03:13:19.795Z,946.71
2023-05-16T03:14:19.784Z,946.71
2023-05-16T03:15:19.790Z,946.72
2023-05-16T03:16:19.838Z,946.68
2023-05-16T03:17:19.815Z,946.69
2023-05-16T03:18:19.733Z,946.71
2023-05-16T03:19:19.972Z,946.69
2023-05-16T03:20:19.738Z,946.70
2023-05-16T03:21:19.721Z,946.69
2023-05-16T03:22:19.682Z,946.69
2023-05-16T03:23:19.685Z,946.71
2023-05-16T03:24:19.710Z,946.69
2023-05-16T03:25:19.672Z,946.73
2023-05-16T03:26:19.660Z,946.74
2023-05-16T03:27:19.640Z,946.74
2023-05-16T03:28:19.621Z,946.75
2023-05-16T03:29:19.634Z,946.75
2023-05-16T03:30:19.601Z,946.80
2023-05-16T03:31:19.672Z,946.81
2023-05-16T03:32:19.642Z,946.85
2023-05-16T03:33:19.574Z,946.83
2023-05-16T03:34:19.549Z,946.88
2023-05-16T03:35:19.543Z,946.87
2023-05-16T03:36:19.625Z,946.89
2023-05-16T03:37:19.556Z,946.93
2023-05-16T03:38:19.501Z,946.92
2023-05-16T03:39:22.121Z,946.91
2023-05-16T03:40:19.501Z,946.94
2023-05-16T03:41:19.481Z,946.92
2023-05-16T03:42:19.475Z,946.93
2023-05-16T03:43:19.450Z,946.92
2023-05-16T03:44:19.429Z,946.91
2023-05-16T03:45:19.445Z,946.92
2023-05-16T03:46:19.467Z,946.92
2023-05-16T03:47:19.414Z,946.91
2023-05-16T03:48:19.401Z,946.89
2023-05-16T03:49:19.382Z,946.90
2023-05-16T03:50:19.391Z,946.89
2023-05-16T03:51:19.385Z,946.89
2023-05-16T03:52:19.368Z,946.91
2023-05-16T03:53:19.356Z,946.89
2023-05-16T03:54:19.320Z,946.93
2023-05-16T03:55:27.271Z,946.89
2023-05-16T03:56:19.420Z,946.89
2023-05-16T03:57:19.352Z,946.90
2023-05-16T03:58:19.348Z,946.92
2023-05-16T03:59:19.364Z,946.86
2023-05-16T04:00:19.298Z,946.91
2023-05-16T04:01:19.351Z,946.89
2023-05-16T04:02:19.290Z,946.95
2023-05-16T04:03:19.314Z,946.92
2023-05-16T04:04:19.211Z,946.94
2023-05-16T04:05:19.217Z,946.96
2023-05-16T04:06:19.255Z,946.94
2023-05-16T04:07:20.335Z,946.98
2023-05-16T04:08:19.172Z,946.95
2023-05-16T04:09:19.199Z,946.98
2023-05-16T04:10:19.137Z,947.03
2023-05-16T04:11:19.161Z,947.00
2023-05-16T04:12:19.120Z,947.01
2023-05-16T04:13:19.150Z,947.07
2023-05-16T04:14:19.107Z,947.07
2023-05-16T04:15:19.090Z,947.07
2023-05-16T04:16:19.091Z,947.12
2023-05-16T04:17:19.073Z,947.07
2023-05-16T04:18:19.058Z,947.13
2023-05-16T04:19:19.481Z,947.08
2023-05-16T04:20:19.025Z,947.12
2023-05-16T04:21:19.037Z,947.12
2023-05-16T04:22:18.996Z,947.08
2023-05-16T04:23:19.059Z,947.07
2023-05-16T04:24:18.997Z,947.09
2023-05-16T04:25:19.009Z,947.02
2023-05-16T04:26:18.951Z,947.08
2023-05-16T04:27:18.947Z,947.04
2023-05-16T04:28:18.953Z,947.06
2023-05-16T04:29:18.953Z,947.07
2023-05-16T04:30:18.905Z,947.07
2023-05-16T04:31:18.948Z,947.06
2023-05-16T04:32:18.896Z,947.08
2023-05-16T04:33:18.898Z,947.04
2023-05-16T04:34:18.887Z,947.01
2023-05-16T04:35:18.873Z,947.06
2023-05-16T04:36:18.842Z,947.04
2023-05-16T04:37:18.862Z,947.05
2023-05-16T04:38:18.843Z,947.05
2023-05-16T04:39:18.815Z,947.10
2023-05-16T04:40:18.797Z,947.07
2023-05-16T04:41:18.813Z,947.06
2023-05-16T04:42:18.796Z,947.07
2023-05-16T04:43:18.783Z,947.07
2023-05-16T04:44:18.750Z,947.09
2023-05-16T04:45:18.762Z,947.11
2023-05-16T04:46:18.805Z,947.06
2023-05-16T04:47:18.817Z,947.13
2023-05-16T04:48:18.744Z,947.13
2023-05-16T04:49:18.698Z,947.17
2023-05-16T04:50:18.700Z,947.16
2023-05-16T04:51:18.676Z,947.19
2023-05-16T04:52:18.665Z,947.12
2023-05-16T04:53:18.677Z,947.15
2023-05-16T04:54:18.648Z,947.20
2023-05-16T04:55:18.630Z,947.16
2023-05-16T04:56:18.630Z,947.18
2023-05-16T04:57:19.412Z,947.16
2023-05-16T04:58:18.591Z,947.23
2023-05-16T04:59:18.614Z,947.22
2023-05-16T05:00:18.632Z,947.24
2023-05-16T05:01:18.576Z,947.25
2023-05-16T05:02:18.541Z,947.26
2023-05-16T05:03:18.653Z,947.31
2023-05-16T05:04:18.852Z,947.35
2023-05-16T05:05:18.563Z,947.30
2023-05-16T05:06:18.521Z,947.34
2023-05-16T05:07:18.493Z,947.37
2023-05-16T05:08:18.481Z,947.42
2023-05-16T05:09:18.490Z,947.38
2023-05-16T05:10:18.457Z,947.42
2023-05-16T05:11:18.465Z,947.42
2023-05-16T05:12:18.466Z,947.39
2023-05-16T05:13:18.439Z,947.41
2023-05-16T05:14:18.422Z,947.35
2023-05-16T05:15:18.399Z,947.42
2023-05-16T05:16:18.381Z,947.41
2023-05-16T05:17:18.418Z,947.45
2023-05-16T05:18:18.414Z,947.46
2023-05-16T05:19:18.384Z,947.48
2023-05-16T05:20:19.569Z,947.48
2023-05-16T05:21:18.331Z,947.44
2023-05-16T05:22:18.332Z,947.45
2023-05-16T05:23:18.314Z,947.49
2023-05-16T05:24:18.344Z,947.51
2023-05-16T05:25:18.311Z,947.48
2023-05-16T05:26:18.285Z,947.53
2023-05-16T05:27:18.271Z,947.60
2023-05-16T05:28:18.259Z,947.56
2023-05-16T05:29:18.256Z,947.66
2023-05-16T05:30:18.236Z,947.65
2023-05-16T05:31:18.280Z,947.67
2023-05-16T05:32:18.195Z,947.71
2023-05-16T05:33:18.230Z,947.69
2023-05-16T05:34:18.185Z,947.77
2023-05-16T05:35:18.174Z,947.70
2023-05-16T05:36:18.182Z,947.72
2023-05-16T05:37:18.151Z,947.74
2023-05-16T05:38:18.142Z,947.71
2023-05-16T05:39:18.115Z,947.73
2023-05-16T05:40:18.118Z,947.72
2023-05-16T05:41:18.122Z,947.75
2023-05-16T05:42:18.092Z,947.76
2023-05-16T05:43:18.093Z,947.74
2023-05-16T05:44:18.065Z,947.76
2023-05-16T05:45:18.061Z,947.74
2023-05-16T05:46:18.089Z,947.74
2023-05-16T05:47:18.057Z,947.73
2023-05-16T05:48:18.043Z,947.74
2023-05-16T05:49:18.001Z,947.73
2023-05-16T05:50:18.021Z,947.75
2023-05-16T05:51:17.992Z,947.75
2023-05-16T05:52:17.979Z,947.85
2023-05-16T05:53:17.960Z,947.83
2023-05-16T05:54:17.971Z,947.86
2023-05-16T05:55:17.928Z,947.95
2023-05-16T05:56:17.938Z,947.96
2023-05-16T05:57:17.908Z,947.97
2023-05-16T05:58:17.952Z,947.98
2023-05-16T05:59:17.908Z,948.00
2023-05-16T06:00:17.899Z,948.05
2023-05-16T06:01:17.925Z,948.08
2023-05-16T06:02:17.917Z,948.11
2023-05-16T06:03:17.889Z,948.07
2023-05-16T06:04:17.862Z,948.11
2023-05-16T06:05:17.846Z,948.09
2023-05-16T06:06:17.812Z,948.14
2023-05-16T06:07:17.800Z,948.12
2023-05-16T06:08:17.789Z,948.13
2023-05-16T06:09:17.783Z,948.17
2023-05-16T06:10:17.813Z,948.11
2023-05-16T06:11:17.762Z,948.10
2023-05-16T06:12:17.748Z,948.12
2023-05-16T06:13:17.732Z,948.07
2023-05-16T06:14:17.721Z,948.10
2023-05-16T06:15:17.711Z,948.12
2023-05-16T06:16:17.795Z,948.13
2023-05-16T06:17:18.186Z,948.15
2023-05-16T06:18:17.702Z,948.20
2023-05-16T06:19:17.727Z,948.23
2023-05-16T06:20:17.653Z,948.20
2023-05-16T06:21:17.655Z,948.26
2023-05-16T06:22:17.628Z,948.30
2023-05-16T06:23:19.244Z,948.23
2023-05-16T06:24:17.617Z,948.22
2023-05-16T06:25:17.587Z,948.24
2023-05-16T06:26:17.606Z,948.24
2023-05-16T06:27:17.567Z,948.22
2023-05-16T06:28:17.559Z,948.22
2023-05-16T06:29:17.570Z,948.24
2023-05-16T06:30:17.571Z,948.17
2023-05-16T06:31:17.579Z,948.15
2023-05-16T06:32:17.514Z,948.23
2023-05-16T06:33:17.522Z,948.21
2023-05-16T06:34:17.493Z,948.23
2023-05-16T06:35:17.506Z,948.18
2023-05-16T06:36:17.524Z,948.21
2023-05-16T06:37:17.466Z,948.17
2023-05-16T06:38:17.447Z,948.17
2023-05-16T06:39:17.430Z,948.18
2023-05-16T06:40:17.436Z,948.18
2023-05-16T06:41:17.453Z,948.19
2023-05-16T06:42:17.399Z,948.17
2023-05-16T06:43:17.422Z,948.18
2023-05-16T06:44:17.391Z,948.17
2023-05-16T06:45:17.395Z,948.21
2023-05-16T06:46:17.407Z,948.22
2023-05-16T06:47:17.341Z,948.19
2023-05-16T06:48:17.396Z,948.20
2023-05-16T06:49:17.339Z,948.20
2023-05-16T06:50:17.328Z,948.21
2023-05-16T06:51:17.325Z,948.24
2023-05-16T06:52:17.288Z,948.26
2023-05-16T06:53:17.309Z,948.29
2023-05-16T06:54:17.271Z,948.31
2023-05-16T06:55:17.255Z,948.32
2023-05-16T06:56:17.245Z,948.29
2023-05-16T06:57:17.250Z,948.30
2023-05-16T06:58:17.233Z,948.33
2023-05-16T06:59:17.198Z,948.37
2023-05-16T07:00:17.192Z,948.35
2023-05-16T07:01:20.206Z,948.32
2023-05-16T07:02:17.233Z,948.35
2023-05-16T07:03:17.331Z,948.33
2023-05-16T07:04:17.197Z,948.41
2023-05-16T07:05:17.180Z,948.33
2023-05-16T07:06:17.124Z,948.33
2023-05-16T07:07:17.105Z,948.34
2023-05-16T07:08:17.121Z,948.28
2023-05-16T07:09:17.109Z,948.34
2023-05-16T07:10:17.096Z,948.35
2023-05-16T07:11:17.060Z,948.36
2023-05-16T07:12:17.054Z,948.38
2023-05-16T07:13:17.060Z,948.40
2023-05-16T07:14:17.245Z,948.37
2023-05-16T07:15:17.023Z,948.40
2023-05-16T07:16:17.064Z,948.37
2023-05-16T07:17:17.019Z,948.40
2023-05-16T07:18:17.007Z,948.40
2023-05-16T07:19:17.034Z,948.41
2023-05-16T07:20:16.965Z,948.39
2023-05-16T07:21:17.012Z,948.49
2023-05-16T07:22:16.976Z,948.47
2023-05-16T07:23:17.098Z,948.45
2023-05-16T07:24:16.920Z,948.40
2023-05-16T07:25:16.920Z,948.44
2023-05-16T07:26:16.914Z,948.44
2023-05-16T07:27:16.881Z,948.45
2023-05-16T07:28:16.869Z,948.42
2023-05-16T07:29:16.898Z,948.47
2023-05-16T07:30:16.854Z,948.44
2023-05-16T07:31:16.863Z,948.41
2023-05-16T07:32:16.978Z,948.47
2023-05-16T07:33:16.830Z,948.44
2023-05-16T07:34:16.808Z,948.42
2023-05-16T07:35:16.789Z,948.46
2023-05-16T07:36:17.761Z,948.49
2023-05-16T07:37:16.894Z,948.46
2023-05-16T07:38:16.886Z,948.47
2023-05-16T07:39:16.781Z,948.41
2023-05-16T07:40:16.757Z,948.41
2023-05-16T07:41:16.744Z,948.41
2023-05-16T07:42:16.730Z,948.47
2023-05-16T07:43:16.703Z,948.48
2023-05-16T07:44:16.707Z,948.46
2023-05-16T07:45:16.686Z,948.44
2023-05-16T07:46:16.727Z,948.42
2023-05-16T07:47:16.653Z,948.40
2023-05-16T07:48:16.688Z,948.46
2023-05-16T07:49:16.624Z,948.41
2023-05-16T07:50:16.659Z,948.39
2023-05-16T07:51:16.665Z,948.41
2023-05-16T07:52:16.600Z,948.43
2023-05-16T07:53:16.622Z,948.44
2023-05-16T07:54:16.567Z,948.47
2023-05-16T07:55:16.577Z,948.48
2023-05-16T07:56:16.548Z,948.49
2023-05-16T07:57:16.546Z,948.49
2023-05-16T07:58:16.532Z,948.51
2023-05-16T07:59:16.596Z,948.47
2023-05-16T08:00:16.507Z,948.47
2023-05-16T08:01:16.481Z,948.40
2023-05-16T08:02:16.509Z,948.49
2023-05-16T08:03:16.655Z,948.48
2023-05-16T08:04:16.459Z,948.47
2023-05-16T08:05:16.569Z,948.57
2023-05-16T08:06:16.467Z,948.55
2023-05-16T08:07:16.414Z,948.58
2023-05-16T08:08:16.429Z,948.62
2023-05-16T08:09:16.470Z,948.63
2023-05-16T08:10:16.416Z,948.67
2023-05-16T08:11:16.406Z,948.69
2023-05-16T08:12:16.380Z,948.71
2023-05-16T08:13:16.346Z,948.74
2023-05-16T08:14:16.357Z,948.74
2023-05-16T08:15:16.352Z,948.76
2023-05-16T08:16:16.397Z,948.75
2023-05-16T08:17:16.318Z,948.73
2023-05-16T08:18:16.542Z,948.80
2023-05-16T08:19:16.312Z,948.79
2023-05-16T08:20:16.292Z,948.77
2023-05-16T08:21:16.253Z,948.79
2023-05-16T08:22:16.291Z,948.75
2023-05-16T08:23:16.263Z,948.77
2023-05-16T08:24:18.214Z,948.77
2023-05-16T08:25:16.266Z,948.75
2023-05-16T08:26:16.229Z,948.83
2023-05-16T08:27:16.185Z,948.82
2023-05-16T08:28:16.178Z,948.84
2023-05-16T08:29:16.167Z,948.91
2023-05-16T08:30:16.188Z,948.91
2023-05-16T08:31:16.155Z,948.96
2023-05-16T08:32:16.134Z,949.02
2023-05-16T08:33:16.263Z,949.03
2023-05-16T08:34:16.125Z,949.09
2023-05-16T08:35:16.102Z,949.08
2023-05-16T08:36:16.109Z,949.10
2023-05-16T08:37:17.397Z,949.15
2023-05-16T08:38:16.087Z,949.16
2023-05-16T08:39:16.047Z,949.19
2023-05-16T08:40:16.040Z,949.24
2023-05-16T08:41:16.097Z,949.22
2023-05-16T08:42:16.020Z,949.29
2023-05-16T08:43:16.023Z,949.32
2023-05-16T08:44:16.021Z,949.33
2023-05-16T08:45:15.985Z,949.29
2023-05-16T08:46:16.040Z,949.29
2023-05-16T08:47:16.069Z,949.30
2023-05-16T08:48:16.049Z,949.34
2023-05-16T08:49:15.936Z,949.28
2023-05-16T08:50:15.931Z,949.30
2023-05-16T08:51:15.913Z,949.25
2023-05-16T08:52:15.923Z,949.28
2023-05-16T08:53:15.903Z,949.23
2023-05-16T08:54:15.900Z,949.22
2023-05-16T08:55:15.867Z,949.30
2023-05-16T08:56:15.863Z,949.28
2023-05-16T08:57:15.974Z,949.24
2023-05-16T08:58:15.854Z,949.24
2023-05-16T08:59:15.838Z,949.28
2023-05-16T09:00:15.820Z,949.30
2023-05-16T09:01:15.873Z,949.26
2023-05-16T09:02:15.816Z,949.25
2023-05-16T09:03:15.856Z,949.25
2023-05-16T09:04:15.792Z,949.24
2023-05-16T09:05:15.770Z,949.26
2023-05-16T09:06:15.759Z,949.27
2023-05-16T09:07:15.756Z,949.27
2023-05-16T09:08:15.733Z,949.32
2023-05-16T09:09:15.746Z,949.31
2023-05-16T09:10:15.722Z,949.33
2023-05-16T09:11:15.764Z,949.31
2023-05-16T09:12:15.702Z,949.31
2023-05-16T09:13:15.962Z,949.29
2023-05-16T09:14:15.657Z,949.30
2023-05-16T09:15:15.641Z,949.35
2023-05-16T09:16:15.711Z,949.37
2023-05-16T09:17:18.436Z,949.40
2023-05-16T09:18:16.697Z,949.35
2023-05-16T09:19:15.621Z,949.40
2023-05-16T09:20:15.734Z,949.41
2023-05-16T09:21:15.578Z,949.44
2023-05-16T09:22:15.598Z,949.45
2023-05-16T09:23:15.587Z,949.39
2023-05-16T09:24:15.572Z,949.44
2023-05-16T09:25:28.545Z,949.44
2023-05-16T09:26:16.566Z,949.46
2023-05-16T09:27:16.014Z,949.49
2023-05-16T09:28:15.500Z,949.48
2023-05-16T09:29:15.515Z,949.54
2023-05-16T09:30:15.511Z,949.56
2023-05-16T09:31:15.477Z,949.55
2023-05-16T09:32:15.461Z,949.58
2023-05-16T09:33:15.617Z,949.57
2023-05-16T09:34:15.456Z,949.52
2023-05-16T09:35:16.572Z,949.48
2023-05-16T09:36:15.409Z,949.55
2023-05-16T09:37:15.395Z,949.56
2023-05-16T09:38:15.400Z,949.58
2023-05-16T09:39:15.386Z,949.60
2023-05-16T09:40:15.362Z,949.63
2023-05-16T09:41:15.354Z,949.58
2023-05-16T09:42:15.337Z,949.63
2023-05-16T09:43:15.352Z,949.63
2023-05-16T09:44:15.326Z,949.68
2023-05-16T09:45:15.353Z,949.63
2023-05-16T09:46:15.378Z,949.62
2023-05-16T09:47:15.324Z,949.64
2023-05-16T09:48:15.425Z,949.69
2023-05-16T09:49:15.261Z,949.67
2023-05-16T09:50:17.167Z,949.70
2023-05-16T09:51:15.236Z,949.63
2023-05-16T09:52:15.212Z,949.67
2023-05-16T09:53:15.255Z,949.62
2023-05-16T09:54:15.228Z,949.62
2023-05-16T09:55:15.192Z,949.57
2023-05-16T09:56:15.173Z,949.55
2023-05-16T09:57:15.180Z,949.57
2023-05-16T09:58:15.156Z,949.58
2023-05-16T09:59:15.180Z,949.58
2023-05-16T10:00:15.122Z,949.59
2023-05-16T10:01:15.242Z,949.67
2023-05-16T10:02:15.150Z,949.63
2023-05-16T10:03:15.180Z,949.59
2023-05-16T10:04:15.158Z,949.59
2023-05-16T10:05:15.082Z,949.64
2023-05-16T10:06:15.054Z,949.62
2023-05-16T10:07:15.051Z,949.69
2023-05-16T10:08:15.047Z,949.67
2023-05-16T10:09:15.059Z,949.71
2023-05-16T10:10:15.010Z,949.69
2023-05-16T10:11:15.062Z,949.64
2023-05-16T10:12:14.989Z,949.68
2023-05-16T10:13:14.986Z,949.64
2023-05-16T10:14:14.968Z,949.70
2023-05-16T10:15:15.002Z,949.69
2023-05-16T10:16:15.745Z,949.65
2023-05-16T10:17:15.012Z,949.66
2023-05-16T10:18:14.965Z,949.70
2023-05-16T10:19:14.937Z,949.65
2023-05-16T10:20:14.919Z,949.65
2023-05-16T10:21:14.948Z,949.74
2023-05-16T10:22:14.886Z,949.70
2023-05-16T10:23:14.908Z,949.63
2023-05-16T10:24:14.846Z,949.56
2023-05-16T10:25:14.865Z,949.61
2023-05-16T10:26:14.905Z,949.60
2023-05-16T10:27:14.820Z,949.62
2023-05-16T10:28:14.804Z,949.57
2023-05-16T10:29:14.850Z,949.63
2023-05-16T10:30:14.780Z,949.52
2023-05-16T10:31:14.824Z,949.54
2023-05-16T10:32:14.949Z,949.51
2023-05-16T10:33:15.093Z,949.52
2023-05-16T10:34:14.736Z,949.55
2023-05-16T10:35:14.776Z,949.55
2023-05-16T10:36:14.734Z,949.53
2023-05-16T10:37:14.706Z,949.58
2023-05-16T10:38:14.693Z,949.49
2023-05-16T10:39:14.713Z,949.46
2023-05-16T10:40:15.187Z,949.46
2023-05-16T10:41:14.670Z,949.46
2023-05-16T10:42:14.652Z,949.44
2023-05-16T10:43:14.696Z,949.46
2023-05-16T10:44:14.701Z,949.47
2023-05-16T10:45:14.641Z,949.45
2023-05-16T10:46:14.969Z,949.44
2023-05-16T10:47:14.603Z,949.43
2023-05-16T10:48:14.645Z,949.42
2023-05-16T10:49:14.642Z,949.45
2023-05-16T10:50:14.879Z,949.40
2023-05-16T10:51:14.563Z,949.46
2023-05-16T10:52:14.542Z,949.46
2023-05-16T10:53:14.539Z,949.45
2023-05-16T10:54:14.555Z,949.44
2023-05-16T10:55:14.503Z,949.51
2023-05-16T10:56:14.506Z,949.50
2023-05-16T10:57:14.470Z,949.49
2023-05-16T10:58:14.463Z,949.47
2023-05-16T10:59:14.468Z,949.42
2023-05-16T11:00:14.503Z,949.45
2023-05-16T11:01:14.479Z,949.50
2023-05-16T11:02:14.484Z,949.51
2023-05-16T11:03:14.508Z,949.55
2023-05-16T11:04:14.451Z,949.60
2023-05-16T11:05:14.446Z,949.61
2023-05-16T11:06:14.406Z,949.55
2023-05-16T11:07:14.446Z,949.58
2023-05-16T11:08:14.369Z,949.60
2023-05-16T11:09:14.397Z,949.53
2023-05-16T11:10:14.432Z,949.55
2023-05-16T11:11:14.347Z,949.56
2023-05-16T11:12:14.358Z,949.55
2023-05-16T11:13:14.327Z,949.56
2023-05-16T11:14:14.274Z,949.52
2023-05-16T11:15:14.307Z,949.53
2023-05-16T11:16:14.263Z,949.55
2023-05-16T11:17:14.377Z,949.56
2023-05-16T11:18:14.287Z,949.52
2023-05-16T11:19:14.328Z,949.54
2023-05-16T11:20:14.243Z,949.52
2023-05-16T11:21:14.218Z,949.50
2023-05-16T11:22:14.204Z,949.44
2023-05-16T11:23:14.230Z,949.46
2023-05-16T11:24:14.191Z,949.47
2023-05-16T11:25:14.208Z,949.45
2023-05-16T11:26:14.142Z,949.49
2023-05-16T11:27:14.143Z,949.51
2023-05-16T11:28:14.119Z,949.52
2023-05-16T11:29:14.113Z,949.52
2023-05-16T11:30:14.188Z,949.48
2023-05-16T11:31:14.116Z,949.51
2023-05-16T11:32:14.095Z,949.54
2023-05-16T11:33:14.235Z,949.53
2023-05-16T11:34:14.071Z,949.52
2023-05-16T11:35:15.210Z,949.61
2023-05-16T11:36:15.947Z,949.56
2023-05-16T11:37:14.210Z,949.59
2023-05-16T11:38:14.024Z,949.61
2023-05-16T11:39:14.058Z,949.57
2023-05-16T11:40:14.125Z,949.58
2023-05-16T11:41:13.969Z,949.53
2023-05-16T11:42:13.977Z,949.53
2023-05-16T11:43:13.985Z,949.57
2023-05-16T11:44:13.965Z,949.53
2023-05-16T11:45:13.941Z,949.53
2023-05-16T11:46:14.316Z,949.54
2023-05-16T11:47:13.961Z,949.44
2023-05-16T11:48:21.773Z,949.47
2023-05-16T11:49:14.892Z,949.46
2023-05-16T11:50:13.969Z,949.49
2023-05-16T11:51:13.890Z,949.44
2023-05-16T11:52:13.877Z,949.44
2023-05-16T11:53:13.880Z,949.42
2023-05-16T11:54:13.848Z,949.41
2023-05-16T11:55:15.740Z,949.39
2023-05-16T11:56:14.837Z,949.42
2023-05-16T11:57:13.790Z,949.40
2023-05-16T11:58:13.780Z,949.35
2023-05-16T11:59:13.785Z,949.40
2023-05-16T12:00:13.887Z,949.31
2023-05-16T12:01:13.789Z,949.29
2023-05-16T12:02:13.730Z,949.24
2023-05-16T12:03:13.799Z,949.23
2023-05-16T12:04:13.910Z,949.29
2023-05-16T12:05:13.736Z,949.27
2023-05-16T12:06:13.720Z,949.25
2023-05-16T12:07:13.703Z,949.29
2023-05-16T12:08:13.709Z,949.38
2023-05-16T12:09:14.341Z,949.44
2023-05-16T12:10:13.668Z,949.42
2023-05-16T12:11:13.641Z,949.46
2023-05-16T12:12:13.667Z,949.48
2023-05-16T12:13:13.647Z,949.54
2023-05-16T12:14:13.605Z,949.60
2023-05-16T12:15:13.601Z,949.60
2023-05-16T12:16:13.590Z,949.61
2023-05-16T12:17:13.596Z,949.64
2023-05-16T12:18:13.701Z,949.60
2023-05-16T12:19:14.282Z,949.60
2023-05-16T12:20:13.578Z,949.64
2023-05-16T12:21:13.575Z,949.60
2023-05-16T12:22:13.514Z,949.63
2023-05-16T12:23:13.578Z,949.65
2023-05-16T12:24:13.492Z,949.64
2023-05-16T12:25:13.634Z,949.63
2023-05-16T12:26:13.471Z,949.66
2023-05-16T12:27:13.465Z,949.69
2023-05-16T12:28:13.452Z,949.70